createdAt,value
2022-11-18T00:01:07.138Z,18.03
2022-11-18T00:03:33.879Z,18.37
2022-11-18T00:06:00.584Z,18.50
2022-11-18T00:08:27.268Z,17.67
2022-11-18T00:10:58.743Z,16.63
2022-11-18T00:13:43.983Z,16.87
2022-11-18T00:16:11.811Z,16.80
2022-11-18T00:18:38.674Z,16.00
2022-11-18T00:21:06.865Z,17.00
2022-11-18T00:23:35.820Z,16.83
2022-11-18T00:26:04.297Z,15.83
2022-11-18T00:28:31.786Z,16.37
2022-11-18T00:31:12.010Z,14.67
2022-11-18T00:33:38.980Z,16.70
2022-11-18T00:36:07.227Z,15.13
2022-11-18T00:38:33.926Z,14.60
2022-11-18T00:41:05.160Z,13.97
2022-11-18T00:43:31.957Z,14.23
2022-11-18T00:45:58.825Z,14.47
2022-11-18T00:48:25.734Z,14.20
2022-11-18T00:50:53.515Z,13.37
2022-11-18T00:53:20.891Z,13.60
2022-11-18T00:55:47.631Z,13.30
2022-11-18T00:58:17.026Z,12.63
2022-11-18T01:00:44.807Z,13.03
2022-11-18T01:03:11.827Z,13.77
2022-11-18T01:05:41.484Z,13.23
2022-11-18T01:08:08.872Z,13.60
2022-11-18T01:10:36.889Z,13.90
2022-11-18T01:13:19.706Z,13.07
2022-11-18T01:15:49.584Z,13.77
2022-11-18T01:18:18.970Z,13.97
2022-11-18T01:20:45.923Z,13.60
2022-11-18T01:23:13.040Z,13.47
2022-11-18T01:25:40.548Z,13.50
2022-11-18T01:28:07.408Z,13.87
2022-11-18T01:30:35.394Z,13.37
2022-11-18T01:33:04.697Z,13.90
2022-11-18T01:35:42.100Z,14.23
2022-11-18T01:38:09.701Z,14.97
2022-11-18T01:40:38.879Z,14.20
2022-11-18T01:43:18.874Z,15.17
2022-11-18T01:45:47.210Z,14.07
2022-11-18T01:48:28.832Z,14.87
2022-11-18T01:51:05.289Z,14.33
2022-11-18T01:53:34.478Z,14.77
2022-11-18T01:56:06.067Z,14.43
2022-11-18T01:58:42.529Z,14.93
2022-11-18T02:01:09.364Z,14.23
2022-11-18T02:03:38.779Z,13.73
2022-11-18T02:06:05.770Z,16.67
2022-11-18T02:08:32.577Z,15.23
2022-11-18T02:10:59.300Z,16.80
2022-11-18T02:13:29.069Z,16.53
2022-11-18T02:16:15.903Z,15.30
2022-11-18T02:19:01.674Z,16.10
2022-11-18T02:21:30.178Z,16.37
2022-11-18T02:24:02.770Z,15.47
2022-11-18T02:27:07.143Z,15.10
2022-11-18T02:29:45.045Z,15.47
2022-11-18T02:32:14.322Z,14.63
2022-11-18T02:35:08.361Z,13.87
2022-11-18T02:37:50.557Z,12.93
2022-11-18T02:40:19.347Z,13.60
2022-11-18T02:42:47.743Z,12.53
2022-11-18T02:45:18.354Z,13.30
2022-11-18T02:47:48.035Z,12.60
2022-11-18T02:50:16.985Z,12.30
2022-11-18T02:52:45.874Z,12.33
2022-11-18T02:55:13.426Z,12.80
2022-11-18T02:57:42.876Z,12.67
2022-11-18T03:00:10.176Z,12.40
2022-11-18T03:02:44.611Z,12.60
2022-11-18T03:05:19.400Z,11.50
2022-11-18T03:07:51.333Z,12.13
2022-11-18T03:10:20.614Z,12.03
2022-11-18T03:12:54.482Z,12.13
2022-11-18T03:15:42.355Z,11.83
2022-11-18T03:18:18.401Z,11.87
2022-11-18T03:20:53.501Z,12.47
2022-11-18T03:23:33.244Z,12.00
2022-11-18T03:26:03.236Z,11.93
2022-11-18T03:29:04.277Z,11.80
2022-11-18T03:31:37.419Z,13.30
2022-11-18T03:34:07.641Z,13.33
2022-11-18T03:36:37.233Z,12.67
2022-11-18T03:39:04.502Z,13.00
2022-11-18T03:41:32.943Z,11.70
2022-11-18T03:44:08.904Z,12.83
2022-11-18T03:46:46.802Z,12.27
2022-11-18T03:49:19.956Z,12.70
2022-11-18T03:51:50.094Z,12.63
2022-11-18T03:54:21.189Z,13.07
2022-11-18T03:56:57.147Z,14.17
2022-11-18T03:59:37.286Z,16.17
2022-11-18T04:02:08.956Z,16.73
2022-11-18T04:04:35.798Z,16.67
2022-11-18T04:07:22.974Z,17.47
2022-11-18T04:09:58.265Z,17.60
2022-11-18T04:12:25.575Z,16.47
2022-11-18T04:14:56.958Z,16.57
2022-11-18T04:17:26.364Z,16.37
2022-11-18T04:19:53.057Z,15.70
2022-11-18T04:22:20.209Z,16.07
2022-11-18T04:24:49.247Z,15.70
2022-11-18T04:27:16.010Z,14.67
2022-11-18T04:29:42.791Z,13.47
2022-11-18T04:32:09.472Z,13.67
2022-11-18T04:34:36.186Z,13.33
2022-11-18T04:37:02.907Z,13.57
2022-11-18T04:39:29.611Z,13.07
2022-11-18T04:42:00.118Z,13.60
2022-11-18T04:44:30.577Z,13.87
2022-11-18T04:46:57.983Z,13.20
2022-11-18T04:49:24.901Z,13.80
2022-11-18T04:51:51.803Z,14.20
2022-11-18T04:54:18.771Z,12.90
2022-11-18T04:56:49.502Z,12.33
2022-11-18T04:59:18.944Z,13.23
2022-11-18T05:01:46.172Z,12.57
2022-11-18T05:04:17.306Z,11.50
2022-11-18T05:06:46.580Z,13.33
2022-11-18T05:09:13.325Z,13.17
2022-11-18T05:11:58.743Z,12.60
2022-11-18T05:14:27.005Z,12.80
2022-11-18T05:16:54.365Z,12.83
2022-11-18T05:19:21.133Z,12.27
2022-11-18T05:21:50.603Z,12.33
2022-11-18T05:24:19.850Z,12.73
2022-11-18T05:26:47.133Z,12.53
2022-11-18T05:29:17.489Z,12.20
2022-11-18T05:31:46.654Z,12.40
2022-11-18T05:34:15.729Z,12.47
2022-11-18T05:36:42.466Z,12.20
2022-11-18T05:39:11.687Z,12.57
2022-11-18T05:41:57.213Z,11.07
2022-11-18T05:44:24.025Z,10.77
2022-11-18T05:46:50.730Z,12.60
2022-11-18T05:49:17.739Z,11.90
2022-11-18T05:51:47.212Z,11.57
2022-11-18T05:54:17.220Z,10.07
2022-11-18T05:56:47.215Z,9.53
2022-11-18T05:59:14.110Z,9.60
2022-11-18T06:01:57.375Z,8.90
2022-11-18T06:04:34.192Z,8.80
2022-11-18T06:07:06.622Z,8.47
2022-11-18T06:09:35.348Z,8.40
2022-11-18T06:12:02.296Z,8.10
2022-11-18T06:14:33.705Z,8.20
2022-11-18T06:17:01.768Z,8.37
2022-11-18T06:19:28.639Z,7.40
2022-11-18T06:21:57.691Z,7.53
2022-11-18T06:24:30.261Z,7.20
2022-11-18T06:26:57.755Z,7.20
2022-11-18T06:29:29.574Z,6.47
2022-11-18T06:32:01.319Z,6.70
2022-11-18T06:34:28.059Z,6.93
2022-11-18T06:36:54.917Z,7.07
2022-11-18T06:39:24.766Z,8.00
2022-11-18T06:41:53.923Z,7.83
2022-11-18T06:44:20.618Z,7.53
2022-11-18T06:46:56.309Z,7.63
2022-11-18T06:49:26.269Z,7.80
2022-11-18T06:51:55.151Z,7.50
2022-11-18T06:54:22.270Z,7.20
2022-11-18T06:56:49.109Z,7.53
2022-11-18T06:59:23.765Z,9.40
2022-11-18T07:01:53.460Z,6.87
2022-11-18T07:04:20.585Z,7.80
2022-11-18T07:06:47.331Z,7.73
2022-11-18T07:09:18.779Z,7.87
2022-11-18T07:11:47.913Z,8.17
2022-11-18T07:14:14.750Z,7.87
2022-11-18T07:16:43.759Z,7.67
2022-11-18T07:19:11.524Z,8.20
2022-11-18T07:21:38.432Z,7.23
2022-11-18T07:24:06.917Z,8.27
2022-11-18T07:26:36.898Z,7.60
2022-11-18T07:29:03.836Z,7.90
2022-11-18T07:31:32.756Z,7.80
2022-11-18T07:33:59.482Z,8.30
2022-11-18T07:36:35.360Z,8.17
2022-11-18T07:39:03.003Z,7.40
2022-11-18T07:41:30.133Z,7.53
2022-11-18T07:44:01.275Z,8.27
2022-11-18T07:46:33.375Z,7.17
2022-11-18T07:49:01.586Z,7.10
2022-11-18T07:51:30.757Z,7.13
2022-11-18T07:53:57.774Z,7.67
2022-11-18T07:56:24.550Z,7.93
2022-11-18T07:58:55.229Z,7.60
2022-11-18T08:01:23.757Z,6.70
2022-11-18T08:03:50.759Z,7.53
2022-11-18T08:06:18.370Z,6.67
2022-11-18T08:08:45.301Z,7.67
2022-11-18T08:11:18.813Z,7.43
2022-11-18T08:13:48.506Z,6.60
2022-11-18T08:16:19.920Z,6.83
2022-11-18T08:18:46.663Z,6.43
2022-11-18T08:21:13.964Z,6.30
2022-11-18T08:23:42.404Z,6.83
2022-11-18T08:26:15.847Z,6.73
2022-11-18T08:28:45.463Z,6.77
2022-11-18T08:31:16.787Z,8.47
2022-11-18T08:33:43.604Z,6.97
2022-11-18T08:36:14.659Z,6.47
2022-11-18T08:38:43.500Z,6.60
2022-11-18T08:41:14.567Z,5.90
2022-11-18T08:43:41.341Z,6.80
2022-11-18T08:46:10.520Z,5.70
2022-11-18T08:48:37.223Z,6.30
2022-11-18T08:51:06.234Z,6.33
2022-11-18T08:53:33.104Z,6.17
2022-11-18T08:56:02.472Z,6.53
2022-11-18T08:58:35.571Z,6.30
2022-11-18T09:01:08.212Z,6.60
2022-11-18T09:03:37.534Z,5.77
2022-11-18T09:06:11.777Z,6.23
2022-11-18T09:08:38.775Z,6.27
2022-11-18T09:11:11.739Z,5.53
2022-11-18T09:14:53.071Z,5.90
2022-11-18T09:16:29.161Z,5.37
2022-11-18T09:18:56.591Z,5.43
2022-11-18T09:21:25.688Z,4.77
2022-11-18T09:23:52.456Z,4.47
2022-11-18T09:26:21.009Z,4.20
2022-11-18T09:28:47.783Z,5.00
2022-11-18T09:31:16.554Z,4.40
2022-11-18T09:33:43.336Z,4.73
2022-11-18T09:36:15.007Z,5.10
2022-11-18T09:38:41.866Z,4.90
2022-11-18T09:41:38.131Z,4.50
2022-11-18T09:44:35.685Z,4.60
2022-11-18T09:47:27.102Z,5.07
2022-11-18T09:49:55.954Z,4.80
2022-11-18T09:52:34.318Z,4.97
2022-11-18T09:55:05.166Z,4.90
2022-11-18T09:57:39.013Z,4.73
2022-11-18T10:00:19.948Z,4.70
2022-11-18T10:03:02.989Z,5.20
2022-11-18T10:05:32.867Z,5.50
2022-11-18T10:08:11.335Z,5.10
2022-11-18T10:10:56.872Z,5.23
2022-11-18T10:13:29.488Z,5.40
2022-11-18T10:16:08.220Z,7.13
2022-11-18T10:19:02.795Z,5.73
2022-11-18T10:21:37.596Z,5.50
2022-11-18T10:24:25.234Z,5.50
2022-11-18T10:27:01.353Z,5.03
2022-11-18T10:29:28.075Z,4.77
2022-11-18T10:32:06.575Z,5.00
2022-11-18T10:34:34.423Z,5.07
2022-11-18T10:37:06.628Z,5.03
2022-11-18T10:39:33.369Z,5.33
2022-11-18T10:42:05.065Z,5.50
2022-11-18T10:44:39.245Z,6.23
2022-11-18T10:47:24.135Z,6.47
2022-11-18T10:49:54.139Z,6.20
2022-11-18T10:52:23.074Z,5.40
2022-11-18T10:55:07.808Z,5.30
2022-11-18T10:57:40.287Z,5.50
2022-11-18T11:00:33.701Z,4.97
2022-11-18T11:03:00.473Z,4.30
2022-11-18T11:05:29.382Z,4.37
2022-11-18T11:08:36.299Z,4.03
2022-11-18T11:11:04.504Z,4.10
2022-11-18T11:13:33.518Z,5.00
2022-11-18T11:16:02.517Z,4.60
2022-11-18T11:18:43.712Z,4.33
2022-11-18T11:21:20.888Z,4.67
2022-11-18T11:23:47.611Z,4.57
2022-11-18T11:29:57.181Z,4.50
2022-11-18T11:32:39.660Z,5.40
2022-11-18T11:35:38.124Z,4.40
2022-11-18T11:38:24.622Z,5.00
2022-11-18T11:41:06.886Z,5.27
2022-11-18T11:43:43.558Z,6.23
2022-11-18T11:46:44.251Z,5.27
2022-11-18T11:49:19.897Z,5.73
2022-11-18T11:52:02.353Z,4.97
2022-11-18T11:54:34.423Z,5.40
2022-11-18T11:57:29.533Z,4.80
2022-11-18T12:00:05.149Z,4.73
2022-11-18T12:02:43.277Z,4.67
2022-11-18T12:05:25.259Z,4.73
2022-11-18T12:07:54.013Z,4.33
2022-11-18T12:11:00.411Z,4.10
2022-11-18T12:13:37.582Z,4.13
2022-11-18T12:16:27.459Z,4.30
2022-11-18T12:18:58.548Z,4.50
2022-11-18T12:21:44.933Z,4.13
2022-11-18T12:24:17.568Z,4.10
2022-11-18T12:26:45.402Z,4.40
2022-11-18T12:29:21.454Z,4.60
2022-11-18T12:31:55.147Z,4.43
2022-11-18T12:34:40.978Z,4.00
2022-11-18T12:37:29.396Z,5.07
2022-11-18T12:39:56.038Z,4.17
2022-11-18T12:43:00.708Z,3.87
2022-11-18T12:45:43.461Z,5.23
2022-11-18T12:48:28.847Z,4.37
2022-11-18T12:51:16.435Z,4.57
2022-11-18T12:53:47.225Z,4.60
2022-11-18T12:56:25.133Z,4.80
2022-11-18T12:59:01.499Z,4.33
2022-11-18T13:01:30.652Z,4.23
2022-11-18T13:04:23.794Z,4.30
2022-11-18T13:06:54.529Z,4.60
2022-11-18T13:09:23.574Z,4.63
2022-11-18T13:12:02.712Z,4.63
2022-11-18T13:14:55.399Z,4.30
2022-11-18T13:17:50.790Z,4.87
2022-11-18T13:20:37.416Z,4.50
2022-11-18T13:23:28.626Z,4.97
2022-11-18T13:26:30.663Z,4.93
2022-11-18T13:29:12.166Z,4.70
2022-11-18T13:32:09.663Z,4.27
2022-11-18T13:34:55.731Z,4.57
2022-11-18T13:37:27.786Z,4.80
2022-11-18T13:39:54.728Z,4.90
2022-11-18T13:42:31.232Z,4.43
2022-11-18T13:45:03.749Z,4.90
2022-11-18T13:47:38.943Z,5.00
2022-11-18T13:50:20.974Z,4.90
2022-11-18T13:53:04.113Z,4.50
2022-11-18T13:55:34.312Z,4.47
2022-11-18T13:58:19.456Z,5.00
2022-11-18T14:00:56.928Z,4.43
2022-11-18T14:03:30.134Z,5.30
2022-11-18T14:05:57.435Z,5.83
2022-11-18T14:08:31.205Z,5.40
2022-11-18T14:10:58.015Z,5.57
2022-11-18T14:13:29.617Z,5.60
2022-11-18T14:16:01.025Z,5.57
2022-11-18T14:18:37.535Z,5.60
2022-11-18T14:21:05.061Z,5.73
2022-11-18T14:23:33.637Z,5.43
2022-11-18T14:26:04.264Z,5.40
2022-11-18T14:28:34.068Z,5.67
2022-11-18T14:31:04.013Z,5.50
2022-11-18T14:33:31.739Z,5.83
2022-11-18T14:36:02.446Z,6.17
2022-11-18T14:41:45.424Z,6.60
2022-11-18T14:44:13.599Z,6.87
2022-11-18T14:46:40.969Z,7.70
2022-11-18T14:49:12.980Z,7.67
2022-11-18T14:51:39.708Z,7.30
2022-11-18T14:54:06.475Z,7.43
2022-11-18T14:56:34.186Z,8.37
2022-11-18T14:59:03.876Z,7.73
2022-11-18T15:01:33.066Z,10.93
2022-11-18T15:03:59.855Z,9.20
2022-11-18T15:06:28.698Z,8.57
2022-11-18T15:08:55.384Z,8.17
2022-11-18T15:11:22.191Z,8.53
2022-11-18T15:13:49.036Z,8.67
2022-11-18T15:16:27.608Z,8.10
2022-11-18T15:19:00.471Z,8.50
2022-11-18T15:21:29.635Z,8.50
2022-11-18T15:23:56.397Z,8.13
2022-11-18T15:26:24.379Z,8.30
2022-11-18T15:28:54.491Z,7.77
2022-11-18T15:31:21.562Z,7.67
2022-11-18T15:33:51.779Z,7.47
2022-11-18T15:36:24.453Z,6.57
2022-11-18T15:38:51.674Z,7.43
2022-11-18T15:41:25.367Z,7.90
2022-11-18T15:43:52.524Z,7.87
2022-11-18T15:46:20.599Z,8.27
2022-11-18T15:48:48.280Z,9.17
2022-11-18T15:51:15.655Z,9.53
2022-11-18T15:53:42.503Z,10.77
2022-11-18T15:56:19.083Z,10.20
2022-11-18T15:58:58.177Z,9.50
2022-11-18T16:01:29.931Z,11.00
2022-11-18T16:03:56.781Z,10.93
2022-11-18T16:06:24.155Z,12.00
2022-11-18T16:08:59.299Z,14.37
2022-11-18T16:11:45.529Z,13.83
2022-11-18T16:14:15.060Z,14.47
2022-11-18T16:16:42.390Z,14.97
2022-11-18T16:19:13.402Z,13.63
2022-11-18T16:21:42.045Z,14.57
2022-11-18T16:24:12.192Z,14.83
2022-11-18T16:26:41.030Z,14.20
2022-11-18T16:29:08.037Z,13.60
2022-11-18T16:31:40.846Z,12.50
2022-11-18T16:34:16.059Z,12.87
2022-11-18T16:36:44.445Z,13.30
2022-11-18T16:39:13.318Z,12.63
2022-11-18T16:41:43.049Z,13.17
2022-11-18T16:44:14.736Z,12.40
2022-11-18T16:46:43.176Z,11.93
2022-11-18T16:49:13.919Z,10.37
2022-11-18T16:51:43.631Z,10.10
2022-11-18T16:54:20.634Z,9.87
2022-11-18T16:56:47.772Z,10.10
2022-11-18T16:59:18.361Z,10.73
2022-11-18T17:01:48.212Z,10.73
2022-11-18T17:04:17.320Z,11.70
2022-11-18T17:06:46.584Z,12.33
2022-11-18T17:09:15.096Z,12.63
2022-11-18T17:11:42.312Z,12.50
2022-11-18T17:14:09.412Z,12.43
2022-11-18T17:16:38.750Z,12.50
2022-11-18T17:19:11.340Z,12.83
2022-11-18T17:21:38.741Z,13.07
2022-11-18T17:24:06.242Z,11.43
2022-11-18T17:26:33.001Z,12.13
2022-11-18T17:28:59.913Z,12.17
2022-11-18T17:31:26.675Z,11.77
2022-11-18T17:33:54.298Z,11.60
2022-11-18T17:36:25.322Z,11.30
2022-11-18T17:38:55.667Z,10.83
2022-11-18T17:41:44.818Z,10.57
2022-11-18T17:44:12.818Z,11.43
2022-11-18T17:46:39.673Z,10.80
2022-11-18T17:49:13.207Z,10.63
2022-11-18T17:51:42.128Z,10.13
2022-11-18T17:54:09.515Z,10.70
2022-11-18T17:56:36.309Z,10.20
2022-11-18T17:59:03.110Z,9.80
2022-11-18T18:01:32.055Z,9.50
2022-11-18T18:04:01.432Z,8.93
2022-11-18T18:06:28.193Z,8.93
2022-11-18T18:08:58.233Z,9.00
2022-11-18T18:11:25.564Z,8.90
2022-11-18T18:14:10.891Z,7.83
2022-11-18T18:16:37.758Z,8.60
2022-11-18T18:19:05.192Z,9.10
2022-11-18T18:21:32.151Z,9.30
2022-11-18T18:23:58.983Z,9.27
2022-11-18T18:26:31.162Z,9.50
2022-11-18T18:29:01.730Z,8.93
2022-11-18T18:31:28.735Z,8.60
2022-11-18T18:33:55.567Z,9.17
2022-11-18T18:36:25.391Z,8.83
2022-11-18T18:38:52.669Z,8.87
2022-11-18T18:41:21.113Z,8.50
2022-11-18T18:43:48.029Z,8.83
2022-11-18T18:46:36.579Z,8.97
2022-11-18T18:49:13.659Z,9.43
2022-11-18T18:51:42.029Z,8.90
2022-11-18T18:54:13.545Z,8.50
2022-11-18T18:56:42.613Z,8.77
2022-11-18T18:59:11.639Z,9.10
2022-11-18T19:01:38.780Z,9.93
2022-11-18T19:04:06.545Z,10.17
2022-11-18T19:06:58.860Z,9.67
2022-11-18T19:09:26.251Z,10.67
2022-11-18T19:12:11.688Z,9.83
2022-11-18T19:14:38.753Z,9.00
2022-11-18T19:17:10.725Z,9.37
2022-11-18T19:19:57.123Z,15.67
2022-11-18T19:22:26.234Z,11.27
2022-11-18T19:24:53.855Z,9.87
2022-11-18T19:27:25.729Z,10.07
2022-11-18T19:29:57.229Z,10.00
2022-11-18T19:32:23.978Z,9.67
2022-11-18T19:34:50.720Z,9.90
2022-11-18T19:37:19.962Z,9.00
2022-11-18T19:39:49.272Z,8.87
2022-11-18T19:42:16.136Z,8.93
2022-11-18T19:44:42.900Z,9.13
2022-11-18T19:47:10.090Z,8.77
2022-11-18T19:49:36.864Z,8.60
2022-11-18T19:52:03.636Z,7.73
2022-11-18T19:54:30.359Z,6.80
2022-11-18T19:56:57.450Z,6.90
2022-11-18T19:59:29.719Z,7.53
2022-11-18T20:01:56.656Z,7.17
2022-11-18T20:04:23.382Z,7.30
2022-11-18T20:06:50.088Z,7.17
2022-11-18T20:09:25.386Z,6.27
2022-11-18T20:11:52.373Z,7.30
2022-11-18T20:14:21.169Z,6.97
2022-11-18T20:16:47.949Z,8.60
2022-11-18T20:19:23.436Z,11.53
2022-11-18T20:21:50.300Z,11.33
2022-11-18T20:24:18.198Z,11.07
2022-11-18T20:26:45.185Z,10.80
2022-11-18T20:29:12.184Z,10.33
2022-11-18T20:31:41.572Z,10.60
2022-11-18T20:34:11.411Z,9.90
2022-11-18T20:36:38.115Z,9.63
2022-11-18T20:39:17.734Z,10.50
2022-11-18T20:42:26.550Z,9.97
2022-11-18T20:44:56.137Z,9.03
2022-11-18T20:47:25.528Z,9.73
2022-11-18T20:49:54.594Z,10.27
2022-11-18T20:52:21.484Z,9.50
2022-11-18T20:54:50.484Z,8.97
2022-11-18T20:57:21.893Z,7.90
2022-11-18T20:59:48.646Z,9.13
2022-11-18T21:02:15.418Z,8.27
2022-11-18T21:04:42.133Z,9.07
2022-11-18T21:07:08.965Z,8.97
2022-11-18T21:09:38.191Z,9.07
2022-11-18T21:12:07.257Z,8.20
2022-11-18T21:14:36.232Z,8.50
2022-11-18T21:17:05.430Z,8.80
2022-11-18T21:19:32.947Z,8.37
2022-11-18T21:21:59.736Z,9.13
2022-11-18T21:24:33.302Z,8.93
2022-11-18T21:27:00.611Z,8.93
2022-11-18T21:29:30.689Z,9.10
2022-11-18T21:31:58.232Z,9.03
2022-11-18T21:34:25.026Z,9.53
2022-11-18T21:36:59.239Z,9.77
2022-11-18T21:39:28.507Z,10.93
2022-11-18T21:41:57.049Z,9.83
2022-11-18T21:44:27.952Z,9.63
2022-11-18T21:46:55.221Z,10.00
2022-11-18T21:49:28.245Z,11.63
2022-11-18T21:51:55.004Z,11.23
2022-11-18T21:54:21.708Z,11.03
2022-11-18T21:56:48.547Z,10.57
2022-11-18T21:59:22.364Z,10.80
2022-11-18T22:01:51.768Z,10.37
2022-11-18T22:04:39.329Z,10.43
2022-11-18T22:07:08.332Z,10.83
2022-11-18T22:09:36.963Z,10.47
2022-11-18T22:12:05.702Z,10.13
2022-11-18T22:14:32.375Z,10.60
2022-11-18T22:16:59.115Z,11.27
2022-11-18T22:19:25.844Z,10.57
2022-11-18T22:21:58.688Z,10.33
2022-11-18T22:24:28.631Z,10.60
2022-11-18T22:29:59.018Z,10.77
2022-11-18T22:32:28.204Z,11.07
2022-11-18T22:34:55.242Z,10.90
2022-11-18T22:37:21.957Z,10.23
2022-11-18T22:39:56.304Z,10.70
2022-11-18T22:42:44.591Z,11.23
2022-11-18T22:45:11.329Z,10.30
2022-11-18T22:47:38.129Z,11.13
2022-11-18T22:50:05.064Z,10.93
2022-11-18T22:52:31.844Z,10.97
2022-11-18T22:54:58.689Z,11.50
2022-11-18T22:57:25.520Z,9.90
2022-11-18T22:59:54.406Z,10.87
2022-11-18T23:02:21.110Z,11.70
2022-11-18T23:04:49.999Z,11.00
2022-11-18T23:07:16.725Z,10.63
2022-11-18T23:09:43.509Z,10.50
2022-11-18T23:12:48.701Z,11.40
2022-11-18T23:15:15.682Z,10.77
2022-11-18T23:17:42.357Z,9.83
2022-11-18T23:20:09.580Z,10.00
2022-11-18T23:22:36.278Z,10.10
2022-11-18T23:25:03.002Z,10.33
2022-11-18T23:27:29.705Z,11.20
2022-11-18T23:29:58.882Z,11.73
2022-11-18T23:32:27.749Z,10.87
2022-11-18T23:34:56.947Z,11.30
2022-11-18T23:37:23.739Z,11.30
2022-11-18T23:39:50.440Z,11.23
2022-11-18T23:42:17.166Z,11.33
2022-11-18T23:44:47.211Z,11.13
2022-11-18T23:47:14.038Z,11.47
2022-11-18T23:49:40.743Z,10.73
2022-11-18T23:52:07.526Z,11.03
2022-11-18T23:54:34.252Z,10.80
2022-11-18T23:57:05.306Z,10.73
2022-11-18T23:59:34.414Z,11.13
